CYNR

METAR CYNR 230100Z AUTO 00000KT 9SM OVC072 16/02 A3038 RMK AO2 SLP296
METAR
LOCATION
CYNR
DATE - TIME
230100Z
WIND
CALM WIND
VISIBILITY
9SM
RUNWAY VISUAL RANGE
NOT REPORTED
WEATHER
CLOUDINESS
OVC072
TEMP / DEWPOINT
16 ºC / 2 ºC
ALTIMETER
30.38 in. Hg
RECENT WEATHER
NOT REPORTED
WIND SHEAR
NOT REPORTED
REMARKS
RMK AO2 SLP296
SEA LEVEL PRESSURE: hPa

CYNR

METAR CYNR 230000Z AUTO 09003KT 9SM OVC070 16/02 A3038 RMK AO2 SLP296
METAR
LOCATION
CYNR
DATE - TIME
230000Z
WIND
090 TRUE @ 3 KNOTS
VISIBILITY
9SM
RUNWAY VISUAL RANGE
NOT REPORTED
WEATHER
CLOUDINESS
OVC070
TEMP / DEWPOINT
16 ºC / 2 ºC
ALTIMETER
30.38 in. Hg
RECENT WEATHER
NOT REPORTED
WIND SHEAR
NOT REPORTED
REMARKS
RMK AO2 SLP296
SEA LEVEL PRESSURE: hPa

CYNR

METAR CYNR 222300Z AUTO 07007KT 9SM OVC070 16/01 A3038 RMK AO2 SLP296
METAR
LOCATION
CYNR
DATE - TIME
222300Z
WIND
070 TRUE @ 7 KNOTS
VISIBILITY
9SM
RUNWAY VISUAL RANGE
NOT REPORTED
WEATHER
CLOUDINESS
OVC070
TEMP / DEWPOINT
16 ºC / 1 ºC
ALTIMETER
30.38 in. Hg
RECENT WEATHER
NOT REPORTED
WIND SHEAR
NOT REPORTED
REMARKS
RMK AO2 SLP296
SEA LEVEL PRESSURE: hPa

Your time UTC time
 
 
Weather data provided by AXYS Technologies Inc., www.axystechnologies.com
 
Station History